X  CloseMetar Aviation Weather Data     EKSB Sønderborg

Temperature

7°C Temperature

5°C Dewpoint

87% Humidity



Wind

21 KM/H

13 MPH

 6 M/S

11 KTS



290°
West North
West
Current Conditions

Overcast Overcast
Pressure 1029.92 (hPa) - 30.41 (in)
Visibility 0 (mi) - 0 (km)
Airport
Airport-code EKSB

Location Sønderborg 40 (km)

Metar:
EKSB 220250Z AUTO 29011KT 9999NDV OVC029/// 07/05 Q1030

Time: 22-01-2020 03:50